Impacts TAF Board INFO
FOR SITUATIONAL AWARENESS. NOT TO BE USED FOR FLIGHT PLANNING PURPOSES.
IDs:

KTPA - Tampa Intl Arpt, FL, US

Issued at 1730 UTC 12 Dec 2017
Updated at 1950 UTC 12 Dec 2017
Potential Impact None Slight Moderate High
Time1853Z 12/20Z 12/21Z 12/22Z 12/23Z 13/00Z 13/01Z 13/02Z 13/03Z 13/04Z 13/05Z 13/06Z 13/07Z 13/08Z>>
Type OBS PRVL PRVL PRVL PRVL PRVL PRVL PRVL PRVL PRVL PRVL PRVL PRVL PRVL
VIS 10 >6 >6 >6 >6 >6 >6 >6 >6 >6 >6 >6 >6 >6
CIG -- -- -- -- -- -- -- -- -- -- -- -- -- --
Cover SCT SCT SCT SCT SCT FEW FEW FEW FEW FEW FEW SKC SKC SKC
FltCat VFR VFR VFR VFR VFR VFR VFR VFR VFR VFR VFR VFR VFR VFR
WX -- -- -- -- -- -- -- -- -- -- -- -- -- --
WDir 260 280 280 280 280 310 310 310 310 310 310 350 350 350
WSpd 17 16 16 16 16 10 10 10 10 10 10 7 7 7
WGst 23 26 26 26 26 -- -- -- -- -- -- -- -- --

Raw TAF
KTPA 121730Z 1218/1324 28016G26KT P6SM SCT050
  FM130000 31010KT P6SM FEW050
  FM130600 35007KT P6SM SKC
  FM131400 02006KT P6SM SKC
  FM131700 28007KT P6SM SKC


Raw METAR
KTPA 121853Z 26017G23KT 10SM SCT045 SCT055 23/12 A2995 RMK AO2 SLP142 T02280117
KTPA 121753Z 26012KT 10SM FEW047 SCT055 SCT250 23/13 A2998 RMK AO2 SLP152 T02280128 10239 20128 58026
KTPA 121653Z 25013KT 10SM SCT045 SCT180 BKN250 23/13 A3001 RMK AO2 SLP161 T02280128

METAR Board
Radar Display
Forecast Discussion

FOR SITUATIONAL AWARENESS. NOT TO BE USED FOR FLIGHT PLANNING PURPOSES.